Air Navigation Services of Czech Republic
Airport: LKLN Updated:  23.09.2018 23:00:07  UTC
 METAR LKLN 23.09. 23:00 ...
METAR LKLN 232300Z AUTO 30007KT 250V360 9999 BKN027 BKN076 OVC170 09/05 Q1016=